Time;durP1;ratioP1;P1;durP2;ratioP2;P2;SDS_P1;SDS_P2;PMS_P1;PMS_P2;Temp;Humidity;BMP_temperature;BMP_pressure;BME280_temperature;BME280_humidity;BME280_pressure;Samples;Min_cycle;Max_cycle;Signal;HPM_P1;HPM_P2
2022/01/01 00:00:27;;;;;;;;;45.25;38.00;;;;;15.82;66.41;101988.50;2079903;27;48280;-54
2022/01/01 00:01:28;;;;;;;;;46.60;39.00;;;;;15.81;66.38;101992.97;2083970;28;46926;-56
2022/01/01 00:02:28;;;;;;;;;41.75;36.50;;;;;15.79;66.72;101991.25;2087242;28;48091;-56
2022/01/01 00:03:29;;;;;;;;;46.25;39.50;;;;;15.78;66.86;101990.38;2056336;28;45560;-57
2022/01/01 00:04:29;;;;;;;;;43.25;37.25;;;;;15.75;66.67;101987.78;2053880;28;47961;-55
2022/01/01 00:05:30;;;;;;;;;44.50;37.75;;;;;15.75;66.75;101985.09;2090286;28;48631;-56
2022/01/01 00:06:30;;;;;;;;;44.00;37.25;;;;;15.75;66.78;101990.44;2091993;27;48195;-55
2022/01/01 00:07:31;;;;;;;;;45.75;38.50;;;;;15.75;66.54;101995.81;2096132;27;46161;-57
2022/01/01 00:08:31;;;;;;;;;43.50;37.50;;;;;15.75;66.58;101990.44;2057455;27;47536;-54
2022/01/01 00:09:34;;;;;;;;;44.75;37.50;;;;;15.75;66.71;101994.91;2086087;28;47841;-55
2022/01/01 00:10:34;;;;;;;;;44.40;37.00;;;;;15.75;66.52;101997.56;2089487;28;48494;-58
2022/01/01 00:11:35;;;;;;;;;42.50;36.75;;;;;15.74;66.75;101999.38;2091277;27;47327;-56
2022/01/01 00:12:36;;;;;;;;;45.25;38.50;;;;;15.73;66.78;101999.41;2092968;27;48258;-55
2022/01/01 00:13:36;;;;;;;;;41.00;35.00;;;;;15.72;66.70;101990.50;2056607;28;47416;-57
2022/01/01 00:14:37;;;;;;;;;45.00;37.50;;;;;15.73;66.72;101997.59;2055182;28;47047;-54
2022/01/01 00:15:38;;;;;;;;;42.80;35.80;;;;;15.72;66.87;101994.97;2054761;27;46443;-56
2022/01/01 00:16:39;;;;;;;;;42.60;37.20;;;;;15.72;67.02;101997.66;2073196;28;45507;-56
2022/01/01 00:17:40;;;;;;;;;41.75;35.75;;;;;15.71;66.65;101985.19;2089909;27;47420;-56
2022/01/01 00:18:41;;;;;;;;;43.40;35.20;;;;;15.71;66.77;101990.53;2063557;28;48090;-56
2022/01/01 00:19:42;;;;;;;;;44.00;37.60;;;;;15.70;66.58;101989.66;2063229;28;48340;-55
2022/01/01 00:20:42;;;;;;;;;40.25;35.00;;;;;15.70;66.56;101991.44;2054095;28;48113;-55
2022/01/01 00:21:43;;;;;;;;;41.75;36.25;;;;;15.70;66.49;101994.13;2081847;28;45921;-56
2022/01/01 00:22:44;;;;;;;;;41.00;35.60;;;;;15.69;67.08;101992.38;2088682;27;48377;-56
2022/01/01 00:23:44;;;;;;;;;43.50;36.25;;;;;15.68;66.97;101993.28;2055304;27;47712;-57
2022/01/01 00:24:45;;;;;;;;;37.75;33.50;;;;;15.68;67.09;101991.50;2070239;27;47340;-56
2022/01/01 00:25:45;;;;;;;;;42.50;37.00;;;;;15.67;67.02;101992.41;2053570;28;47409;-59
2022/01/01 00:26:46;;;;;;;;;45.50;37.25;;;;;15.68;67.14;101995.97;2090721;28;48296;-57
2022/01/01 00:27:46;;;;;;;;;40.00;34.25;;;;;15.67;67.09;101991.53;2079996;27;46721;-58
2022/01/01 00:28:47;;;;;;;;;41.25;34.75;;;;;15.66;66.74;101987.97;2053794;28;48247;-55
2022/01/01 00:29:47;;;;;;;;;38.75;33.50;;;;;15.64;66.67;101984.47;2077025;28;47951;-56
2022/01/01 00:30:47;;;;;;;;;37.50;33.25;;;;;15.64;66.62;101987.13;2057163;28;46282;-56
2022/01/01 00:31:48;;;;;;;;;46.00;37.00;;;;;15.63;67.03;101987.19;2096027;27;46855;-56
2022/01/01 00:32:48;;;;;;;;;34.75;32.50;;;;;15.64;66.94;101986.25;2080855;28;46939;-56
2022/01/01 00:33:49;;;;;;;;;44.25;37.00;;;;;15.63;67.09;101981.81;2068468;28;46872;-55
2022/01/01 00:34:50;;;;;;;;;46.50;38.25;;;;;15.62;66.58;101980.91;2084981;28;47972;-52
2022/01/01 00:35:51;;;;;;;;;45.60;39.60;;;;;15.62;66.99;101985.38;2067681;28;46861;-54
2022/01/01 00:36:51;;;;;;;;;41.50;34.00;;;;;15.62;66.93;101991.63;2097892;27;47414;-58
2022/01/01 00:37:52;;;;;;;;;42.00;36.00;;;;;15.63;67.13;101984.50;2073629;28;45549;-54
2022/01/01 00:38:52;;;;;;;;;47.25;39.00;;;;;15.62;66.59;101983.59;2059144;28;46936;-55
2022/01/01 00:39:53;;;;;;;;;46.00;37.75;;;;;15.60;66.64;101975.59;2087345;28;47013;-56
2022/01/01 00:40:53;;;;;;;;;47.50;40.00;;;;;15.62;66.77;101988.94;2075620;28;47621;-56
2022/01/01 00:41:54;;;;;;;;;47.75;39.50;;;;;15.61;67.05;101981.81;2089244;27;47472;-57
2022/01/01 00:42:54;;;;;;;;;48.25;38.00;;;;;15.59;66.87;101986.31;2076617;27;47342;-54
2022/01/01 00:43:54;;;;;;;;;44.50;36.75;;;;;15.61;66.83;101989.84;2065524;27;47181;-55
2022/01/01 00:44:55;;;;;;;;;44.00;37.50;;;;;15.60;66.77;101990.78;2086845;27;47065;-56
2022/01/01 00:45:55;;;;;;;;;45.50;38.50;;;;;15.59;66.47;101997.91;2083948;28;47139;-58
2022/01/01 00:46:57;;;;;;;;;45.00;37.00;;;;;15.60;66.71;101994.31;2092197;27;47897;-55
2022/01/01 00:47:57;;;;;;;;;35.00;32.00;;;;;15.60;66.86;101996.13;2078395;28;48052;-56
2022/01/01 00:48:58;;;;;;;;;44.50;38.00;;;;;15.61;66.92;101987.19;2060010;28;46793;-57
2022/01/01 00:49:58;;;;;;;;;46.25;38.75;;;;;15.60;66.84;101993.44;2055250;28;48495;-59
2022/01/01 00:50:59;;;;;;;;;43.50;36.75;;;;;15.60;66.84;101994.31;2092658;28;47360;-57
2022/01/01 00:51:59;;;;;;;;;43.00;36.00;;;;;15.60;66.68;101996.13;2091385;27;47942;-56
2022/01/01 00:53:00;;;;;;;;;43.00;37.75;;;;;15.60;66.85;101994.31;2077176;27;46980;-56
2022/01/01 00:54:01;;;;;;;;;43.80;35.40;;;;;15.60;66.97;102002.34;2066503;28;48520;-56
2022/01/01 00:55:01;;;;;;;;;41.50;36.00;;;;;15.60;66.90;101998.81;2057866;27;48256;-57
2022/01/01 00:56:02;;;;;;;;;41.50;35.75;;;;;15.60;67.01;102005.03;2088426;28;45497;-57
2022/01/01 00:57:03;;;;;;;;;45.50;37.50;;;;;15.60;66.96;102009.50;2089545;28;47067;-56
2022/01/01 00:58:03;;;;;;;;;44.75;37.00;;;;;15.60;67.13;102002.34;2075043;27;46987;-56
2022/01/01 00:59:04;;;;;;;;;41.50;36.00;;;;;15.61;66.91;102003.22;2070780;28;47417;-56
2022/01/01 01:00:06;;;;;;;;;45.25;38.25;;;;;15.60;67.03;101999.69;2064830;28;47932;-55
2022/01/01 01:01:07;;;;;;;;;41.00;35.60;;;;;15.59;67.16;101991.66;2096992;28;47671;-56
2022/01/01 01:02:08;;;;;;;;;45.60;38.00;;;;;15.60;66.75;101999.69;2089891;27;47209;-54
2022/01/01 01:03:13;;;;;;;;;39.75;35.25;;;;;15.60;66.71;101993.44;2073367;27;47174;-56
2022/01/01 01:04:14;;;;;;;;;43.60;35.60;;;;;15.58;66.88;101998.81;2054735;28;47152;-56
2022/01/01 01:05:14;;;;;;;;;43.00;36.50;;;;;15.59;66.87;102000.59;2080220;27;48052;-55
2022/01/01 01:06:15;;;;;;;;;42.25;35.25;;;;;15.60;67.14;102004.16;2091688;27;47131;-57
2022/01/01 01:07:15;;;;;;;;;42.25;35.00;;;;;15.61;66.97;102003.22;2096373;28;47849;-57
2022/01/01 01:08:17;;;;;;;;;38.75;34.50;;;;;15.61;67.02;101989.84;2070904;27;46455;-57
2022/01/01 01:09:17;;;;;;;;;40.20;34.00;;;;;15.60;66.84;101991.66;2078271;27;49385;-57
2022/01/01 01:10:18;;;;;;;;;39.75;34.50;;;;;15.61;66.94;101984.50;2088059;28;48178;-56
2022/01/01 01:11:18;;;;;;;;;38.75;34.75;;;;;15.62;66.90;101985.38;2095965;27;47451;-56
2022/01/01 01:12:24;;;;;;;;;36.25;33.25;;;;;15.63;66.78;101981.81;2092797;28;48057;-57
2022/01/01 01:13:28;;;;;;;;;39.00;34.60;;;;;15.63;66.79;101981.81;2062563;27;48082;-57
2022/01/01 01:14:28;;;;;;;;;43.00;36.00;;;;;15.62;67.08;101980.03;2054966;28;48483;-58
2022/01/01 01:15:30;;;;;;;;;44.50;37.25;;;;;15.60;66.51;101983.63;2057146;28;45259;-57
2022/01/01 01:16:30;;;;;;;;;41.40;35.40;;;;;15.60;66.75;101988.97;2066688;28;47509;-55
2022/01/01 01:17:31;;;;;;;;;40.75;35.50;;;;;15.62;67.01;101990.72;2097274;27;47215;-56
2022/01/01 01:18:32;;;;;;;;;37.50;34.00;;;;;15.62;67.00;101994.28;2063880;27;46470;-55
2022/01/01 01:19:32;;;;;;;;;36.00;33.00;;;;;15.62;66.47;101998.75;2058368;27;46521;-55
2022/01/01 01:20:33;;;;;;;;;38.50;33.75;;;;;15.62;66.91;101994.28;2060024;27;45982;-54
2022/01/01 01:21:34;;;;;;;;;44.00;36.60;;;;;15.62;66.97;101993.41;2075163;28;48245;-58
2022/01/01 01:22:34;;;;;;;;;36.25;33.25;;;;;15.62;66.59;101993.41;2095884;27;47260;-54
2022/01/01 01:23:34;;;;;;;;;42.50;36.50;;;;;15.62;66.96;101982.72;2057209;28;48834;-59
2022/01/01 01:24:35;;;;;;;;;37.75;32.50;;;;;15.62;66.82;101990.72;2066182;28;48235;-56
2022/01/01 01:25:42;;;;;;;;;36.25;32.50;;;;;15.61;66.83;101984.50;2057811;27;47253;-56
2022/01/01 01:26:49;;;;;;;;;39.20;33.20;;;;;15.60;66.70;101985.41;2088510;28;46884;-54
2022/01/01 01:27:50;;;;;;;;;34.00;31.40;;;;;15.59;66.76;101984.53;2080252;27;47267;-55
2022/01/01 01:28:52;;;;;;;;;38.60;32.00;;;;;15.59;66.47;101988.97;2054829;28;47484;-56
2022/01/01 01:29:53;;;;;;;;;35.60;32.20;;;;;15.58;66.33;101980.06;2077455;27;47429;-55
2022/01/01 01:30:53;;;;;;;;;33.25;30.75;;;;;15.58;66.30;101985.44;2060157;28;47623;-53
2022/01/01 01:31:53;;;;;;;;;36.75;33.00;;;;;15.58;66.96;101984.53;2097225;27;46133;-56
2022/01/01 01:32:54;;;;;;;;;32.25;30.25;;;;;15.57;66.93;101982.78;2076509;27;47721;-55
2022/01/01 01:33:54;;;;;;;;;32.00;29.00;;;;;15.56;66.83;101992.59;2054884;27;47617;-56
2022/01/01 01:34:55;;;;;;;;;36.50;32.25;;;;;15.56;66.49;101984.59;2083945;28;48254;-55
2022/01/01 01:35:55;;;;;;;;;41.00;34.75;;;;;15.56;66.30;101984.59;2068511;28;47081;-57
2022/01/01 01:36:55;;;;;;;;;39.75;34.50;;;;;15.55;66.42;101977.47;2097632;27;47141;-55
2022/01/01 01:37:56;;;;;;;;;36.00;33.25;;;;;15.55;66.52;101982.81;2070440;28;45475;-57
2022/01/01 01:38:56;;;;;;;;;35.75;32.25;;;;;15.54;66.83;101983.75;2058969;27;48169;-57
2022/01/01 01:39:57;;;;;;;;;38.75;34.00;;;;;15.54;66.55;101989.09;2085775;27;48143;-55
2022/01/01 01:40:58;;;;;;;;;48.40;38.80;;;;;15.54;66.99;101978.38;2076723;28;47411;-56
2022/01/01 01:41:58;;;;;;;;;45.25;38.25;;;;;15.53;66.47;101981.97;2097112;27;46086;-54
2022/01/01 01:42:59;;;;;;;;;40.75;34.00;;;;;15.53;66.65;101989.13;2074489;28;47246;-57
2022/01/01 01:44:02;;;;;;;;;39.60;35.00;;;;;15.52;66.81;101988.25;2066861;28;47984;-56
2022/01/01 01:45:04;;;;;;;;;45.80;38.20;;;;;15.53;66.86;101981.09;2081421;27;46445;-54
2022/01/01 01:46:06;;;;;;;;;39.00;35.00;;;;;15.52;66.42;101982.03;2087882;28;48230;-55
2022/01/01 01:47:14;;;;;;;;;44.20;36.60;;;;;15.51;66.75;101986.50;2092014;27;47048;-55
2022/01/01 01:48:14;;;;;;;;;45.00;38.80;;;;;15.51;66.57;101993.63;2067069;27;47197;-55
2022/01/01 01:49:15;;;;;;;;;43.75;37.75;;;;;15.50;66.44;101987.41;2058219;28;47747;-55
2022/01/01 01:50:17;;;;;;;;;39.25;33.00;;;;;15.50;66.92;101984.72;2059756;28;47946;-56
2022/01/01 01:51:18;;;;;;;;;45.40;38.20;;;;;15.50;66.92;101982.06;2097306;27;47896;-56
2022/01/01 01:52:20;;;;;;;;;43.60;36.20;;;;;15.49;66.49;101982.06;2092167;27;47365;-58
2022/01/01 01:53:20;;;;;;;;;40.20;34.20;;;;;15.49;66.32;101988.28;2063522;27;46520;-56
2022/01/01 01:54:21;;;;;;;;;45.75;39.00;;;;;15.48;66.40;101983.84;2063859;28;47387;-54
2022/01/01 01:55:22;;;;;;;;;42.40;35.00;;;;;15.47;66.46;101984.78;2070243;27;48511;-53
2022/01/01 01:56:23;;;;;;;;;45.25;36.25;;;;;15.47;66.82;101986.56;2096981;27;47269;-56
2022/01/01 01:57:25;;;;;;;;;39.40;34.60;;;;;15.46;66.32;101991.03;2092575;27;47345;-57
2022/01/01 01:58:28;;;;;;;;;45.00;38.40;;;;;15.46;66.39;101984.81;2068356;27;47461;-55
2022/01/01 01:59:30;;;;;;;;;45.60;36.20;;;;;15.45;66.72;101986.59;2060484;27;47465;-56
2022/01/01 02:01:00;;;;;;;;;44.20;37.80;;;;;15.44;66.37;101984.84;2083113;28;47475;-55
2022/01/01 02:02:00;;;;;;;;;41.40;35.80;;;;;15.44;66.86;101990.19;2092410;27;47268;-56
2022/01/01 02:03:01;;;;;;;;;41.50;35.50;;;;;15.43;66.33;101980.41;2077980;27;48136;-57
2022/01/01 02:04:01;;;;;;;;;45.80;36.80;;;;;15.43;66.67;101979.53;2055863;28;45567;-57
2022/01/01 02:05:02;;;;;;;;;42.25;35.00;;;;;15.42;66.57;101975.97;2069724;28;47807;-55
2022/01/01 02:06:06;;;;;;;;;43.00;36.50;;;;;15.41;66.52;101976.03;2087980;28;46406;-56
2022/01/01 02:07:07;;;;;;;;;47.00;39.40;;;;;15.39;66.13;101980.53;2091512;28;48227;-55
2022/01/01 02:08:10;;;;;;;;;46.60;39.40;;;;;15.37;66.63;101977.84;2075182;27;48450;-57
2022/01/01 02:09:11;;;;;;;;;46.20;38.20;;;;;15.35;66.57;101973.47;2054923;28;47350;-54
2022/01/01 02:10:13;;;;;;;;;44.40;38.00;;;;;15.32;66.85;101977.09;2070168;28;47293;-56
2022/01/01 02:11:13;;;;;;;;;46.20;38.40;;;;;15.31;66.49;101981.56;2097157;27;47696;-56
2022/01/01 02:12:15;;;;;;;;;47.25;39.75;;;;;15.30;66.81;101981.59;2091490;27;47912;-55
2022/01/01 02:13:22;;;;;;;;;44.60;37.60;;;;;15.28;66.44;101984.31;2070322;27;48138;-56
2022/01/01 02:14:35;;;;;;;;;49.20;40.20;;;;;15.27;66.37;101985.22;2054480;28;48521;-55
2022/01/01 02:17:07;;;;;;;;;44.60;37.60;;;;;15.24;66.69;101982.59;2073455;28;47227;-58
2022/01/01 02:18:08;;;;;;;;;44.40;37.40;;;;;15.24;66.40;101990.59;2079619;27;47092;-56
2022/01/01 02:19:09;;;;;;;;;43.00;36.40;;;;;15.23;66.51;101987.97;2054835;28;48072;-56
2022/01/01 02:20:18;;;;;;;;;40.00;34.75;;;;;15.23;66.62;101985.28;2062426;27;47386;-55
2022/01/01 02:21:21;;;;;;;;;47.80;39.40;;;;;15.22;66.48;101980.88;2063297;28;47180;-56
2022/01/01 02:22:23;;;;;;;;;46.40;39.00;;;;;15.21;66.45;101985.34;2096591;27;48769;-55
2022/01/01 02:23:27;;;;;;;;;44.60;36.80;;;;;15.20;66.99;101985.38;2063920;27;47476;-55
2022/01/01 02:24:28;;;;;;;;;42.80;36.20;;;;;15.19;67.01;101987.16;2058926;27;47199;-58
2022/01/01 02:25:29;;;;;;;;;43.50;36.00;;;;;15.19;66.87;101983.59;2063793;27;47584;-55
2022/01/01 02:26:34;;;;;;;;;46.20;37.80;;;;;15.18;66.96;101985.41;2076401;27;47977;-55
2022/01/01 02:27:36;;;;;;;;;27.60;26.20;;;;;15.18;66.74;101987.19;2090879;28;48016;-56
2022/01/01 02:28:37;;;;;;;;;44.60;37.60;;;;;15.18;66.81;101989.88;2056375;28;47150;-53
2022/01/01 02:29:38;;;;;;;;;41.75;35.25;;;;;15.17;67.04;101983.63;2071682;28;46463;-57
2022/01/01 02:30:38;;;;;;;;;43.20;36.00;;;;;15.16;66.77;101972.97;2056979;27;48609;-56
2022/01/01 02:31:39;;;;;;;;;38.75;34.25;;;;;15.14;66.63;101965.00;2088426;28;48364;-54
2022/01/01 02:32:40;;;;;;;;;45.50;37.75;;;;;15.16;66.79;101967.63;2086075;27;46946;-55
2022/01/01 02:33:42;;;;;;;;;43.00;34.50;;;;;15.14;66.60;101965.00;2054346;28;48335;-55
2022/01/01 02:34:43;;;;;;;;;43.80;36.40;;;;;15.14;66.64;101959.66;2082828;27;45326;-56
2022/01/01 02:35:44;;;;;;;;;42.00;36.25;;;;;15.14;66.72;101966.78;2057411;28;48110;-56
2022/01/01 02:36:44;;;;;;;;;39.50;34.25;;;;;15.13;66.76;101962.34;2096917;27;46935;-56
2022/01/01 02:37:45;;;;;;;;;37.25;32.50;;;;;15.14;66.71;101972.13;2076440;27;46262;-54
2022/01/01 02:38:45;;;;;;;;;41.50;35.50;;;;;15.13;66.92;101970.38;2054267;28;46346;-58
2022/01/01 02:39:46;;;;;;;;;43.50;37.00;;;;;15.14;66.68;101964.13;2087273;28;48191;-55
2022/01/01 02:40:46;;;;;;;;;43.00;35.25;;;;;15.13;67.17;101965.03;2064079;28;47879;-56
2022/01/01 02:41:51;;;;;;;;;42.25;35.75;;;;;15.13;66.97;101963.25;2096263;28;47962;-55
2022/01/01 02:42:52;;;;;;;;;41.00;34.80;;;;;15.13;66.58;101965.03;2078014;27;47337;-56
2022/01/01 02:43:53;;;;;;;;;43.60;35.60;;;;;15.13;67.16;101965.03;2058441;28;47336;-56
2022/01/01 02:44:54;;;;;;;;;44.00;36.75;;;;;15.13;66.64;101962.34;2088086;27;47467;-58
2022/01/01 02:45:55;;;;;;;;;39.25;34.00;;;;;15.12;67.05;101957.88;2076187;28;47465;-54
2022/01/01 02:46:56;;;;;;;;;39.25;34.00;;;;;15.10;66.60;101955.25;2093133;27;47157;-55
2022/01/01 02:47:56;;;;;;;;;40.00;34.60;;;;;15.11;66.84;101954.34;2078589;28;47390;-55
2022/01/01 02:48:57;;;;;;;;;38.00;32.75;;;;;15.12;66.75;101957.88;2056809;28;47479;-54
2022/01/01 02:49:57;;;;;;;;;46.25;39.25;;;;;15.12;66.50;101955.22;2054301;28;47700;-55
2022/01/01 02:50:57;;;;;;;;;42.00;35.50;;;;;15.11;66.81;101951.66;2087267;28;47099;-56
2022/01/01 02:51:58;;;;;;;;;40.00;34.50;;;;;15.11;67.00;101950.78;2090859;27;47748;-56
2022/01/01 02:52:58;;;;;;;;;41.00;35.75;;;;;15.11;67.16;101958.81;2079078;27;47953;-55
2022/01/01 02:53:59;;;;;;;;;40.00;34.00;;;;;15.09;66.70;101950.81;2063465;28;47302;-56
2022/01/01 02:55:00;;;;;;;;;42.75;35.00;;;;;15.10;66.66;101952.59;2054918;28;48183;-54
2022/01/01 02:56:00;;;;;;;;;41.25;35.75;;;;;15.09;66.67;101950.81;2095750;27;47325;-55
2022/01/01 02:57:01;;;;;;;;;47.25;37.50;;;;;15.10;66.43;101959.72;2091740;27;47199;-55
2022/01/01 02:58:02;;;;;;;;;44.20;36.00;;;;;15.09;66.66;101955.28;2075646;28;47058;-54
2022/01/01 02:59:03;;;;;;;;;43.50;36.00;;;;;15.09;66.79;101957.97;2048998;28;47173;-57
2022/01/01 03:00:05;;;;;;;;;43.50;35.25;;;;;15.07;66.74;101958.00;2062042;28;47509;-56
2022/01/01 03:01:05;;;;;;;;;44.40;34.80;;;;;15.06;66.67;101955.34;2096198;28;47842;-56
2022/01/01 03:02:05;;;;;;;;;40.75;34.50;;;;;15.05;66.88;101964.28;2090500;28;47469;-55
2022/01/01 03:03:06;;;;;;;;;39.75;35.50;;;;;15.05;66.83;101958.94;2074927;28;47618;-57
2022/01/01 03:04:06;;;;;;;;;40.75;36.00;;;;;15.03;67.08;101964.34;2076353;28;46151;-55
2022/01/01 03:05:07;;;;;;;;;39.00;34.00;;;;;15.04;67.13;101963.41;2070778;28;47959;-55
2022/01/01 03:06:08;;;;;;;;;46.60;37.20;;;;;15.01;66.71;101963.50;2096606;27;48165;-55
2022/01/01 03:07:09;;;;;;;;;39.20;34.60;;;;;14.99;66.62;101960.84;2091974;27;48382;-56
2022/01/01 03:08:10;;;;;;;;;42.50;36.50;;;;;14.98;67.12;101961.72;2073082;27;48591;-55
2022/01/01 03:09:10;;;;;;;;;38.00;33.20;;;;;14.98;67.26;101972.41;2054326;28;46303;-57
2022/01/01 03:10:11;;;;;;;;;40.50;35.50;;;;;14.98;67.21;101958.19;2071855;28;48378;-55
2022/01/01 03:11:11;;;;;;;;;40.75;33.75;;;;;14.97;66.62;101976.00;2096851;28;47394;-56
2022/01/01 03:12:14;;;;;;;;;37.50;33.75;;;;;14.97;67.30;101972.47;2091145;27;48193;-56
2022/01/01 03:13:14;;;;;;;;;41.80;36.80;;;;;14.96;67.14;101970.69;2073631;27;47419;-54
2022/01/01 03:14:17;;;;;;;;;44.25;35.25;;;;;14.95;66.97;101972.50;2054317;28;47616;-55
2022/01/01 03:15:18;;;;;;;;;40.00;35.20;;;;;14.94;66.94;101972.53;2058856;27;47981;-57
2022/01/01 03:16:18;;;;;;;;;39.75;35.50;;;;;14.93;66.79;101968.09;2057957;28;46748;-55
2022/01/01 03:17:18;;;;;;;;;36.75;33.50;;;;;14.92;66.99;101972.56;2096805;27;48232;-57
2022/01/01 03:18:19;;;;;;;;;38.25;33.00;;;;;14.91;66.94;101968.13;2065101;27;46919;-56
2022/01/01 03:19:19;;;;;;;;;40.00;34.75;;;;;14.91;67.13;101968.13;2054500;28;47198;-58
2022/01/01 03:20:20;;;;;;;;;36.75;33.25;;;;;14.90;67.31;101969.03;2066298;28;48049;-56
2022/01/01 03:21:20;;;;;;;;;37.75;33.50;;;;;14.89;66.88;101961.94;2067048;28;48178;-57
2022/01/01 03:22:21;;;;;;;;;36.50;32.50;;;;;14.88;67.41;101968.19;2095934;27;47963;-53
2022/01/01 03:23:21;;;;;;;;;37.00;32.50;;;;;14.88;66.82;101964.66;2062491;27;47177;-56
2022/01/01 03:24:22;;;;;;;;;44.75;36.00;;;;;14.85;67.37;101967.34;2058139;28;47568;-54
2022/01/01 03:25:22;;;;;;;;;34.50;32.00;;;;;14.83;67.55;101972.72;2068807;27;46934;-53
2022/01/01 03:26:23;;;;;;;;;34.00;31.75;;;;;14.82;67.26;101967.41;2074970;28;48020;-55
2022/01/01 03:27:23;;;;;;;;;37.75;34.50;;;;;14.80;67.60;101972.78;2096889;27;48075;-52
2022/01/01 03:28:23;;;;;;;;;35.00;32.00;;;;;14.81;67.42;101973.69;2057475;28;47425;-55
2022/01/01 03:29:28;;;;;;;;;38.25;33.00;;;;;14.81;67.23;101971.88;2065530;28;47383;-55
2022/01/01 03:30:28;;;;;;;;;37.60;33.40;;;;;14.80;67.54;101970.13;2063191;28;46918;-55
2022/01/01 03:31:28;;;;;;;;;38.50;33.50;;;;;14.80;67.17;101972.78;2084538;28;47181;-55
2022/01/01 03:32:29;;;;;;;;;37.00;33.00;;;;;14.79;67.22;101965.69;2092003;27;48007;-54
2022/01/01 03:33:29;;;;;;;;;39.00;34.00;;;;;14.79;67.28;101967.47;2057500;27;47326;-56
2022/01/01 03:34:30;;;;;;;;;40.25;33.25;;;;;14.76;67.49;101971.09;2076590;27;47086;-55
2022/01/01 03:35:31;;;;;;;;;36.00;32.75;;;;;14.77;67.56;101978.22;2063276;27;47497;-55
2022/01/01 03:36:31;;;;;;;;;33.25;31.50;;;;;14.76;67.04;101978.25;2093537;28;47920;-55
2022/01/01 03:37:31;;;;;;;;;34.00;31.50;;;;;14.75;67.15;101976.47;2088601;27;47450;-56
2022/01/01 03:38:32;;;;;;;;;37.25;33.50;;;;;14.74;67.56;101978.28;2053557;28;46995;-57
2022/01/01 03:39:32;;;;;;;;;37.25;33.75;;;;;14.71;67.63;101973.84;2085741;28;48137;-56
2022/01/01 03:40:33;;;;;;;;;36.75;33.00;;;;;14.70;67.89;101979.22;2066909;27;46312;-54
2022/01/01 03:41:33;;;;;;;;;32.25;30.25;;;;;14.67;67.64;101974.81;2096654;27;47929;-54
2022/01/01 03:42:34;;;;;;;;;35.25;31.50;;;;;14.68;67.45;101975.69;2091410;27;47475;-54
2022/01/01 03:43:34;;;;;;;;;34.75;31.75;;;;;14.66;67.51;101978.41;2053644;28;47028;-56
2022/01/01 03:44:35;;;;;;;;;30.00;29.50;;;;;14.66;67.26;101975.72;2091574;28;47149;-56
2022/01/01 03:45:36;;;;;;;;;30.25;29.75;;;;;14.65;67.67;101971.31;2071555;27;47064;-56
2022/01/01 03:46:37;;;;;;;;;25.40;24.00;;;;;14.65;67.67;101962.41;2096791;27;47444;-55
2022/01/01 03:47:37;;;;;;;;;30.00;29.50;;;;;14.67;67.67;101963.25;2089746;27;46145;-56
2022/01/01 03:48:38;;;;;;;;;29.50;29.25;;;;;14.66;67.58;101962.38;2059978;28;47355;-57
2022/01/01 03:49:39;;;;;;;;;32.50;30.50;;;;;14.67;68.06;101952.56;2054439;27;47191;-56
2022/01/01 03:50:39;;;;;;;;;26.60;25.40;;;;;14.67;67.52;101955.22;2076964;28;48208;-56
2022/01/01 03:51:41;;;;;;;;;27.00;27.00;;;;;14.67;67.58;101953.44;2093215;28;48082;-57
2022/01/01 03:52:45;;;;;;;;;30.60;29.60;;;;;14.67;67.74;101953.44;2090178;28;48276;-55
2022/01/01 03:53:46;;;;;;;;;34.60;30.60;;;;;14.69;67.37;101956.09;2067495;28;47634;-55
2022/01/01 03:54:46;;;;;;;;;29.50;27.25;;;;;14.67;67.61;101956.13;2054298;28;48121;-55
2022/01/01 03:55:46;;;;;;;;;30.75;28.75;;;;;14.69;67.79;101964.97;2089850;28;47439;-55
2022/01/01 03:56:47;;;;;;;;;35.25;29.75;;;;;14.68;67.45;101952.53;2092265;27;48362;-56
2022/01/01 03:57:47;;;;;;;;;25.75;25.25;;;;;14.68;67.49;101962.34;2087281;27;47945;-56
2022/01/01 03:58:48;;;;;;;;;30.50;29.25;;;;;14.67;67.60;101953.44;2075095;28;47176;-56
2022/01/01 03:59:48;;;;;;;;;28.00;28.00;;;;;14.67;67.76;101953.44;2055353;28;48121;-55
2022/01/01 04:00:48;;;;;;;;;31.00;30.25;;;;;14.67;67.57;101964.13;2096606;28;47266;-56
2022/01/01 04:01:49;;;;;;;;;30.50;29.00;;;;;14.67;67.69;101950.78;2092685;27;45300;-54
2022/01/01 04:02:49;;;;;;;;;33.00;29.50;;;;;14.67;67.19;101955.22;2086296;27;48009;-55
2022/01/01 04:03:50;;;;;;;;;28.00;27.50;;;;;14.68;67.37;101957.00;2059587;28;47279;-55
2022/01/01 04:04:50;;;;;;;;;34.00;31.00;;;;;14.68;67.41;101951.66;2058453;28;47092;-56
2022/01/01 04:05:50;;;;;;;;;30.25;28.50;;;;;14.69;67.66;101954.28;2053982;28;47299;-55
2022/01/01 04:06:52;;;;;;;;;34.00;31.00;;;;;14.69;67.47;101964.09;2079549;28;48445;-55
2022/01/01 04:07:53;;;;;;;;;27.60;26.60;;;;;14.68;67.39;101962.34;2084417;27;48444;-56
2022/01/01 04:08:53;;;;;;;;;31.00;28.75;;;;;14.68;67.64;101955.19;2061516;28;47355;-54
2022/01/01 04:09:54;;;;;;;;;28.00;26.75;;;;;14.66;67.57;101953.47;2084405;28;47375;-56
2022/01/01 04:10:54;;;;;;;;;27.75;26.25;;;;;14.67;67.70;101952.56;2097878;27;46840;-55
2022/01/01 04:11:55;;;;;;;;;26.50;26.50;;;;;14.67;67.74;101949.91;2092441;27;48276;-56
2022/01/01 04:12:55;;;;;;;;;27.25;26.50;;;;;14.68;67.43;101949.84;2083809;27;48215;-57
2022/01/01 04:13:55;;;;;;;;;30.00;27.00;;;;;14.70;67.71;101952.50;2059368;28;46147;-55
2022/01/01 04:14:57;;;;;;;;;29.25;27.25;;;;;14.69;67.71;101948.94;2059405;27;47274;-57
2022/01/01 04:15:58;;;;;;;;;29.20;27.00;;;;;14.69;67.82;101946.28;2055128;28;48624;-56
2022/01/01 04:16:58;;;;;;;;;29.50;26.75;;;;;14.71;67.55;101946.25;2085675;28;47890;-56
2022/01/01 04:18:03;;;;;;;;;26.50;26.50;;;;;14.70;67.51;101945.38;2084702;27;47238;-56
2022/01/01 04:19:03;;;;;;;;;26.40;23.40;;;;;14.68;67.25;101939.16;2058442;27;47441;-55
2022/01/01 04:20:06;;;;;;;;;20.00;20.00;;;;;14.69;67.33;101946.28;2065514;28;46744;-54
2022/01/01 04:21:08;;;;;;;;;20.20;18.80;;;;;14.70;67.93;101944.47;2056167;28;48034;-58
2022/01/01 04:22:10;;;;;;;;;27.40;25.20;;;;;14.70;67.57;101948.03;2097907;27;47508;-55
2022/01/01 04:23:11;;;;;;;;;28.40;27.80;;;;;14.71;67.17;101947.13;2077496;27;46876;-57
2022/01/01 04:24:11;;;;;;;;;22.75;22.50;;;;;14.71;67.58;101952.47;2054997;28;46910;-56
2022/01/01 04:25:12;;;;;;;;;25.00;24.25;;;;;14.70;67.52;101948.03;2070836;28;47870;-57
2022/01/01 04:26:12;;;;;;;;;29.00;27.50;;;;;14.70;67.39;101948.03;2061573;28;47038;-55
2022/01/01 04:27:13;;;;;;;;;24.00;23.00;;;;;14.70;67.52;101948.03;2097790;28;48492;-55
2022/01/01 04:28:13;;;;;;;;;26.25;25.75;;;;;14.70;67.33;101949.81;2065882;27;47275;-55
2022/01/01 04:29:13;;;;;;;;;30.00;27.00;;;;;14.71;67.61;101954.25;2065891;27;47151;-55
2022/01/01 04:30:14;;;;;;;;;24.50;24.00;;;;;14.71;67.05;101946.25;2083965;27;48394;-56
2022/01/01 04:31:15;;;;;;;;;21.75;21.75;;;;;14.70;67.31;101945.38;2072707;28;46850;-55
2022/01/01 04:32:18;;;;;;;;;25.40;25.20;;;;;14.70;67.37;101945.38;2097542;27;46904;-57
2022/01/01 04:33:18;;;;;;;;;25.20;25.20;;;;;14.70;67.58;101939.13;2064416;28;48748;-54
2022/01/01 04:34:19;;;;;;;;;21.75;21.00;;;;;14.70;67.15;101944.47;2068915;28;45344;-54
2022/01/01 04:35:19;;;;;;;;;22.50;22.00;;;;;14.70;67.23;101940.00;2072898;27;47808;-58
2022/01/01 04:36:21;;;;;;;;;29.50;27.25;;;;;14.69;67.02;101948.94;2085431;28;47267;-56
2022/01/01 04:37:21;;;;;;;;;27.20;26.80;;;;;14.67;66.98;101937.41;2092854;27;46975;-54
2022/01/01 04:39:29;;;;;;;;;29.00;26.60;;;;;14.67;67.51;101939.22;2082777;28;48147;-54
2022/01/01 04:40:29;;;;;;;;;24.50;24.00;;;;;14.67;67.36;101941.88;2067426;27;46017;-55